createdAt,value
2019-03-01T00:01:36.017Z,71.33
2019-03-01T00:05:01.395Z,72.83
2019-03-01T00:08:47.689Z,73.13
2019-03-01T00:11:59.281Z,98.40
2019-03-01T00:15:34.876Z,96.67
2019-03-01T00:19:08.626Z,99.30
2019-03-01T00:22:54.681Z,92.00
2019-03-01T00:26:35.561Z,91.17
2019-03-01T00:30:07.922Z,89.50
2019-03-01T00:33:37.564Z,92.20
2019-03-01T00:37:15.991Z,84.10
2019-03-01T00:41:16.391Z,91.83
2019-03-01T00:44:31.978Z,89.53
2019-03-01T00:47:35.878Z,89.60
2019-03-01T00:50:39.795Z,78.03
2019-03-01T00:53:44.547Z,85.43
2019-03-01T00:56:48.490Z,89.00
2019-03-01T00:59:52.311Z,90.23
2019-03-01T01:02:56.261Z,86.30
2019-03-01T01:06:00.188Z,88.77
2019-03-01T01:09:06.133Z,87.93
2019-03-01T01:12:16.133Z,86.07
2019-03-01T01:15:20.060Z,84.77
2019-03-01T01:18:23.865Z,93.93
2019-03-01T01:21:27.714Z,98.50
2019-03-01T01:24:31.531Z,84.03
2019-03-01T01:27:35.367Z,89.33
2019-03-01T01:30:39.281Z,88.20
2019-03-01T01:33:43.161Z,91.07
2019-03-01T01:36:47.041Z,87.43
2019-03-01T01:39:51.047Z,83.43
2019-03-01T01:42:54.869Z,80.23
2019-03-01T01:45:59.169Z,83.93
2019-03-01T01:49:03.358Z,83.10
2019-03-01T01:52:07.634Z,80.97
2019-03-01T01:55:12.020Z,79.67
2019-03-01T01:58:16.214Z,81.43
2019-03-01T02:01:20.469Z,79.20
2019-03-01T02:04:24.908Z,77.57
2019-03-01T02:07:29.307Z,75.07
2019-03-01T02:10:33.543Z,77.70
2019-03-01T02:13:37.731Z,70.90
2019-03-01T02:16:41.947Z,82.10
2019-03-01T02:19:46.230Z,81.53
2019-03-01T02:22:50.632Z,74.80
2019-03-01T02:25:54.905Z,78.07
2019-03-01T02:28:59.183Z,72.53
2019-03-01T02:32:03.443Z,70.77
2019-03-01T02:35:09.809Z,73.40
2019-03-01T02:38:14.140Z,68.20
2019-03-01T02:41:18.453Z,70.20
2019-03-01T02:44:22.645Z,70.50
2019-03-01T02:47:27.075Z,76.97
2019-03-01T02:50:31.427Z,73.10
2019-03-01T02:53:35.787Z,77.80
2019-03-01T02:56:40.087Z,78.57
2019-03-01T02:59:44.449Z,73.30
2019-03-01T03:02:48.737Z,78.13
2019-03-01T03:06:12.053Z,73.17
2019-03-01T03:09:16.521Z,72.60
2019-03-01T03:12:20.935Z,71.33
2019-03-01T03:15:30.713Z,75.03
2019-03-01T03:18:34.928Z,71.80
2019-03-01T03:21:39.209Z,69.13
2019-03-01T03:24:43.572Z,71.97
2019-03-01T03:27:47.913Z,73.27
2019-03-01T03:30:52.187Z,69.60
2019-03-01T03:33:56.444Z,74.67
2019-03-01T03:37:00.817Z,80.17
2019-03-01T03:40:06.201Z,71.90
2019-03-01T03:43:10.590Z,76.73
2019-03-01T03:46:14.999Z,82.00
2019-03-01T03:49:19.377Z,76.63
2019-03-01T03:52:23.655Z,80.53
2019-03-01T03:55:28.053Z,79.17
2019-03-01T03:58:32.784Z,73.93
2019-03-01T04:01:36.991Z,75.80
2019-03-01T04:04:41.346Z,80.10
2019-03-01T04:07:46.130Z,83.20
2019-03-01T04:10:50.506Z,86.43
2019-03-01T04:13:54.956Z,78.00
2019-03-01T04:16:59.286Z,92.13
2019-03-01T04:20:03.891Z,86.60
2019-03-01T04:23:08.229Z,90.90
2019-03-01T04:26:12.445Z,93.47
2019-03-01T04:29:16.818Z,92.63
2019-03-01T04:32:21.126Z,99.27
2019-03-01T04:35:25.401Z,88.87
2019-03-01T04:38:29.840Z,97.53
2019-03-01T04:41:34.018Z,93.27
2019-03-01T04:44:38.331Z,89.67
2019-03-01T04:47:43.847Z,89.43
2019-03-01T04:50:48.239Z,90.83
2019-03-01T04:53:52.578Z,97.87
2019-03-01T04:56:56.814Z,97.30
2019-03-01T05:00:01.127Z,94.17
2019-03-01T05:03:06.161Z,94.23
2019-03-01T05:06:13.675Z,98.57
2019-03-01T05:09:17.978Z,101.63
2019-03-01T05:12:22.326Z,97.83
2019-03-01T05:15:26.625Z,98.00
2019-03-01T05:18:30.889Z,101.13
2019-03-01T05:21:35.186Z,97.17
2019-03-01T05:24:39.514Z,132.60
2019-03-01T05:27:43.885Z,114.60
2019-03-01T05:30:48.295Z,121.50
2019-03-01T05:33:52.700Z,111.63
2019-03-01T05:36:56.970Z,114.07
2019-03-01T05:40:01.273Z,124.67
2019-03-01T05:43:05.482Z,113.20
2019-03-01T05:46:09.780Z,111.63
2019-03-01T05:49:14.115Z,108.90
2019-03-01T05:52:18.367Z,107.40
2019-03-01T05:55:23.033Z,115.50
2019-03-01T05:58:40.260Z,109.50
2019-03-01T06:02:18.149Z,105.33
2019-03-01T06:05:30.308Z,104.53
2019-03-01T06:09:17.261Z,93.30
2019-03-01T06:12:58.332Z,87.90
2019-03-01T06:16:45.843Z,88.20
2019-03-01T06:20:33.157Z,82.57
2019-03-01T06:24:15.645Z,79.67
2019-03-01T06:27:43.724Z,82.47
2019-03-01T06:31:29.129Z,85.13
2019-03-01T06:35:25.460Z,133.70
2019-03-01T06:39:42.286Z,197.00
2019-03-01T06:43:06.379Z,138.47
2019-03-01T06:46:46.002Z,143.97
2019-03-01T06:49:58.332Z,136.80
2019-03-01T06:53:02.726Z,150.30
2019-03-01T06:56:07.591Z,129.80
2019-03-01T06:59:11.950Z,133.83
2019-03-01T07:02:21.854Z,143.60
2019-03-01T07:05:26.215Z,129.60
2019-03-01T07:08:30.473Z,125.43
2019-03-01T07:11:34.761Z,125.43
2019-03-01T07:14:39.147Z,136.77
2019-03-01T07:17:43.491Z,124.47
2019-03-01T07:20:47.780Z,123.10
2019-03-01T07:23:51.972Z,135.93
2019-03-01T07:26:56.299Z,120.13
2019-03-01T07:30:00.632Z,119.13
2019-03-01T07:33:05.009Z,121.30
2019-03-01T07:36:09.265Z,132.97
2019-03-01T07:39:13.642Z,120.47
2019-03-01T07:42:17.891Z,116.87
2019-03-01T07:45:22.629Z,125.47
2019-03-01T07:48:26.967Z,121.50
2019-03-01T07:51:31.645Z,111.30
2019-03-01T07:54:36.092Z,123.67
2019-03-01T07:57:40.454Z,106.43
2019-03-01T08:00:47.197Z,117.37
2019-03-01T08:03:53.191Z,106.67
2019-03-01T08:06:56.922Z,108.03
2019-03-01T08:10:01.256Z,105.47
2019-03-01T08:13:05.561Z,96.00
2019-03-01T08:16:09.998Z,96.03
2019-03-01T08:19:17.054Z,94.37
2019-03-01T08:22:20.845Z,98.03
2019-03-01T08:25:28.450Z,97.27
2019-03-01T08:28:32.338Z,101.57
2019-03-01T08:31:36.696Z,91.67
2019-03-01T08:34:40.987Z,101.23
2019-03-01T08:37:45.326Z,94.97
2019-03-01T08:40:50.043Z,96.60
2019-03-01T08:43:55.217Z,94.20
2019-03-01T08:46:59.914Z,105.67
2019-03-01T08:50:04.497Z,100.63
2019-03-01T08:53:11.527Z,97.10
2019-03-01T08:56:15.570Z,88.97
2019-03-01T08:59:20.017Z,94.73
2019-03-01T09:02:24.608Z,100.73
2019-03-01T09:05:28.828Z,87.80
2019-03-01T09:08:33.183Z,96.17
2019-03-01T09:11:37.500Z,98.20
2019-03-01T09:14:41.842Z,96.90
2019-03-01T09:17:46.216Z,91.83
2019-03-01T09:20:50.492Z,84.07
2019-03-01T09:23:55.161Z,89.80
2019-03-01T09:26:59.545Z,88.93
2019-03-01T09:30:04.084Z,91.67
2019-03-01T09:33:08.356Z,85.93
2019-03-01T09:36:17.818Z,85.77
2019-03-01T09:39:22.539Z,83.53
2019-03-01T09:42:26.909Z,85.43
2019-03-01T09:45:36.238Z,85.77
2019-03-01T09:48:37.275Z,80.50
2019-03-01T09:51:43.744Z,82.17
2019-03-01T09:54:47.839Z,77.97
2019-03-01T09:57:52.187Z,75.17
2019-03-01T10:01:04.741Z,76.60
2019-03-01T10:04:09.020Z,74.10
2019-03-01T10:07:13.380Z,73.33
2019-03-01T10:10:21.260Z,70.77
2019-03-01T10:13:25.625Z,75.77
2019-03-01T10:16:29.812Z,71.23
2019-03-01T10:19:34.227Z,73.53
2019-03-01T10:22:38.566Z,76.47
2019-03-01T10:25:42.872Z,77.17
2019-03-01T10:28:47.128Z,80.93
2019-03-01T10:31:51.352Z,78.10
2019-03-01T10:34:55.610Z,71.17
2019-03-01T10:37:59.824Z,74.23
2019-03-01T10:41:04.552Z,72.70
2019-03-01T10:44:08.862Z,69.07
2019-03-01T10:47:13.191Z,66.47
2019-03-01T10:50:17.431Z,66.97
2019-03-01T10:53:21.800Z,64.87
2019-03-01T10:56:26.089Z,71.13
2019-03-01T10:59:30.304Z,64.60
2019-03-01T11:02:34.679Z,66.97
2019-03-01T11:05:38.876Z,66.83
2019-03-01T11:08:43.122Z,68.83
2019-03-01T11:11:47.513Z,70.47
2019-03-01T11:14:51.976Z,63.83
2019-03-01T11:17:56.343Z,64.50
2019-03-01T11:21:00.665Z,66.83
2019-03-01T11:24:04.965Z,62.70
2019-03-01T11:27:12.924Z,62.70
2019-03-01T11:30:17.579Z,69.30
2019-03-01T11:33:22.004Z,68.67
2019-03-01T11:36:26.362Z,77.27
2019-03-01T11:39:30.739Z,76.20
2019-03-01T11:42:35.218Z,68.23
2019-03-01T11:45:39.624Z,72.47
2019-03-01T11:48:44.180Z,68.93
2019-03-01T11:51:48.476Z,73.00
2019-03-01T11:54:52.758Z,70.50
2019-03-01T11:57:56.988Z,74.20
2019-03-01T12:01:01.261Z,71.90
2019-03-01T12:04:05.559Z,71.73
2019-03-01T12:07:09.851Z,75.33
2019-03-01T12:10:17.651Z,70.07
2019-03-01T12:13:21.863Z,73.80
2019-03-01T12:16:26.267Z,78.57
2019-03-01T12:19:30.540Z,78.57
2019-03-01T12:22:34.829Z,77.57
2019-03-01T12:25:39.189Z,85.37
2019-03-01T12:28:43.940Z,80.07
2019-03-01T12:31:48.238Z,85.07
2019-03-01T12:34:52.539Z,87.27
2019-03-01T12:37:56.819Z,85.00
2019-03-01T12:41:01.202Z,85.23
2019-03-01T12:44:05.541Z,85.10
2019-03-01T12:47:09.906Z,85.40
2019-03-01T12:50:14.404Z,81.47
2019-03-01T12:53:18.777Z,80.43
2019-03-01T12:56:23.113Z,81.83
2019-03-01T12:59:27.396Z,88.20
2019-03-01T13:02:31.656Z,82.10
2019-03-01T13:05:35.979Z,82.37
2019-03-01T13:08:40.254Z,83.93
2019-03-01T13:11:44.632Z,99.93
2019-03-01T13:14:48.987Z,92.27
2019-03-01T13:17:53.420Z,92.77
2019-03-01T13:20:57.957Z,96.93
2019-03-01T13:24:02.258Z,104.60
2019-03-01T13:27:06.627Z,94.63
2019-03-01T13:30:14.094Z,99.03
2019-03-01T13:33:18.425Z,104.27
2019-03-01T13:36:22.729Z,97.73
2019-03-01T13:39:27.051Z,97.87
2019-03-01T13:42:31.353Z,108.23
2019-03-01T13:45:35.707Z,108.87
2019-03-01T13:48:40.115Z,104.40
2019-03-01T13:51:44.328Z,109.97
2019-03-01T13:54:48.767Z,95.83
2019-03-01T13:57:54.195Z,102.87
2019-03-01T14:00:58.521Z,110.03
2019-03-01T14:04:03.255Z,113.37
2019-03-01T14:07:07.825Z,102.67
2019-03-01T14:10:14.117Z,101.40
2019-03-01T14:13:18.432Z,101.97
2019-03-01T14:16:22.678Z,100.50
2019-03-01T14:19:27.036Z,102.90
2019-03-01T14:22:31.372Z,100.40
2019-03-01T14:25:38.640Z,97.37
2019-03-01T14:28:42.047Z,107.13
2019-03-01T14:31:46.544Z,107.20
2019-03-01T14:34:50.822Z,111.03
2019-03-01T14:37:55.655Z,109.70
2019-03-01T14:41:00.646Z,100.10
2019-03-01T14:44:05.112Z,97.03
2019-03-01T14:47:09.465Z,107.67
2019-03-01T14:50:15.336Z,103.50
2019-03-01T14:53:19.731Z,112.40
2019-03-01T14:56:34.668Z,118.50
2019-03-01T14:59:48.202Z,131.47
2019-03-01T15:03:17.579Z,127.50
2019-03-01T15:06:21.935Z,125.93
2019-03-01T15:09:26.360Z,122.43
2019-03-01T15:12:30.795Z,137.50
2019-03-01T15:15:35.166Z,140.67
2019-03-01T15:18:40.736Z,134.03
2019-03-01T15:21:45.188Z,129.83
2019-03-01T15:24:49.572Z,127.77
2019-03-01T15:27:53.884Z,133.20
2019-03-01T15:30:58.184Z,145.37
2019-03-01T15:34:02.497Z,140.40
2019-03-01T15:37:06.856Z,134.97
2019-03-01T15:40:11.358Z,161.00
2019-03-01T15:43:15.623Z,141.23
2019-03-01T15:46:20.246Z,142.07
2019-03-01T15:49:24.609Z,143.17
2019-03-01T15:52:28.992Z,148.67
2019-03-01T15:55:33.213Z,149.07
2019-03-01T15:58:37.601Z,152.00
2019-03-01T16:01:43.627Z,146.70
2019-03-01T16:04:47.923Z,142.50
2019-03-01T16:07:52.183Z,145.90
2019-03-01T16:10:59.736Z,145.57
2019-03-01T16:14:04.558Z,145.53
2019-03-01T16:17:09.006Z,146.77
2019-03-01T16:20:14.154Z,147.27
2019-03-01T16:23:18.555Z,157.10
2019-03-01T16:26:29.553Z,139.87
2019-03-01T16:29:28.982Z,159.63
2019-03-01T16:32:33.515Z,153.77
2019-03-01T16:35:37.823Z,168.50
2019-03-01T16:38:47.661Z,165.43
2019-03-01T16:41:48.212Z,164.07
2019-03-01T16:44:52.482Z,155.63
2019-03-01T16:47:56.787Z,162.33
2019-03-01T16:51:01.152Z,163.17
2019-03-01T16:54:06.499Z,170.80
2019-03-01T16:57:11.841Z,167.17
2019-03-01T17:00:22.303Z,168.93
2019-03-01T17:03:26.664Z,178.33
2019-03-01T17:06:31.045Z,173.00
2019-03-01T17:09:35.340Z,171.63
2019-03-01T17:12:39.716Z,160.00
2019-03-01T17:15:45.542Z,162.67
2019-03-01T17:18:50.181Z,160.57
2019-03-01T17:21:54.888Z,165.97
2019-03-01T17:24:59.254Z,168.07
2019-03-01T17:28:03.914Z,169.60
2019-03-01T17:31:08.694Z,170.10
2019-03-01T17:34:13.085Z,153.03
2019-03-01T17:37:17.487Z,134.83
2019-03-01T17:40:21.879Z,121.17
2019-03-01T17:43:29.668Z,99.80
2019-03-01T17:46:32.924Z,91.60
2019-03-01T17:49:38.268Z,89.50
2019-03-01T17:52:43.949Z,87.23
2019-03-01T17:55:48.598Z,82.23
2019-03-01T17:58:52.901Z,80.40
2019-03-01T18:01:57.580Z,69.50
2019-03-01T18:05:01.925Z,73.73
2019-03-01T18:08:06.294Z,63.83
2019-03-01T18:11:12.503Z,65.13
2019-03-01T18:14:16.983Z,56.63
2019-03-01T18:17:21.265Z,52.50
2019-03-01T18:20:25.671Z,58.37
2019-03-01T18:23:30.164Z,59.63
2019-03-01T18:26:36.378Z,54.73
2019-03-01T18:29:42.399Z,57.90
2019-03-01T18:32:46.647Z,58.37
2019-03-01T18:35:52.507Z,56.90
2019-03-01T18:38:57.009Z,57.20
2019-03-01T18:42:02.472Z,57.97
2019-03-01T18:45:10.721Z,64.87
2019-03-01T18:48:15.431Z,65.20
2019-03-01T18:51:19.737Z,63.67
2019-03-01T18:54:23.935Z,61.70
2019-03-01T18:57:28.397Z,70.67
2019-03-01T19:00:35.765Z,68.17
2019-03-01T19:03:41.516Z,66.53
2019-03-01T19:06:48.502Z,66.80
2019-03-01T19:09:53.242Z,67.90
2019-03-01T19:12:57.517Z,77.13
2019-03-01T19:16:01.932Z,74.23
2019-03-01T19:19:06.280Z,72.87
2019-03-01T19:22:10.675Z,78.10
2019-03-01T19:25:15.366Z,78.10
2019-03-01T19:28:20.200Z,82.93
2019-03-01T19:31:25.375Z,82.20
2019-03-01T19:34:29.982Z,77.90
2019-03-01T19:37:34.337Z,72.27
2019-03-01T19:40:38.662Z,79.17
2019-03-01T19:43:45.378Z,79.80
2019-03-01T19:46:51.322Z,83.57
2019-03-01T19:49:55.112Z,79.77
2019-03-01T19:52:59.596Z,91.73
2019-03-01T19:56:03.931Z,93.20
2019-03-01T19:59:08.308Z,86.13
2019-03-01T20:02:12.675Z,91.97
2019-03-01T20:05:18.715Z,101.47
2019-03-01T20:08:26.438Z,99.00
2019-03-01T20:11:29.842Z,103.37
2019-03-01T20:14:34.611Z,103.27
2019-03-01T20:17:44.384Z,96.27
2019-03-01T20:20:44.977Z,108.00
2019-03-01T20:23:49.335Z,97.03
2019-03-01T20:26:53.713Z,98.07
2019-03-01T20:29:58.174Z,96.03
2019-03-01T20:33:02.541Z,89.67
2019-03-01T20:36:06.926Z,90.97
2019-03-01T20:39:15.376Z,83.30
2019-03-01T20:42:22.973Z,76.77
2019-03-01T20:45:29.734Z,80.17
2019-03-01T20:48:32.281Z,71.73
2019-03-01T20:51:36.776Z,74.43
2019-03-01T20:54:41.183Z,69.83
2019-03-01T20:57:45.538Z,67.07
2019-03-01T21:00:49.949Z,74.27
2019-03-01T21:03:54.589Z,69.73
2019-03-01T21:07:03.073Z,66.73
2019-03-01T21:10:12.569Z,71.73
2019-03-01T21:13:18.029Z,67.73
2019-03-01T21:16:22.399Z,65.63
2019-03-01T21:19:26.793Z,68.80
2019-03-01T21:22:31.089Z,64.83
2019-03-01T21:25:39.871Z,65.43
2019-03-01T21:28:43.326Z,63.83
2019-03-01T21:31:47.727Z,67.07
2019-03-01T21:34:52.004Z,57.93
2019-03-01T21:37:56.407Z,61.67
2019-03-01T21:41:00.956Z,68.17
2019-03-01T21:44:10.121Z,78.80
2019-03-01T21:47:13.529Z,88.57
2019-03-01T21:50:17.369Z,93.97
2019-03-01T21:53:21.740Z,107.67
2019-03-01T21:56:26.062Z,108.73
2019-03-01T21:59:30.446Z,106.50
2019-03-01T22:02:35.087Z,107.80
2019-03-01T22:05:39.433Z,99.30
2019-03-01T22:08:44.837Z,97.03
2019-03-01T22:11:50.138Z,128.30
2019-03-01T22:14:54.529Z,157.43
2019-03-01T22:17:58.798Z,166.70
2019-03-01T22:21:03.216Z,160.73
2019-03-01T22:24:07.851Z,159.60
2019-03-01T22:27:12.362Z,154.40
2019-03-01T22:30:22.611Z,141.83
2019-03-01T22:33:25.658Z,129.87
2019-03-01T22:36:29.920Z,128.13
2019-03-01T22:39:34.272Z,131.03
2019-03-01T22:42:40.537Z,183.77
2019-03-01T22:45:45.511Z,182.33
2019-03-01T22:48:56.312Z,160.63
2019-03-01T22:51:56.086Z,151.43
2019-03-01T22:55:01.606Z,144.93
2019-03-01T22:58:06.439Z,141.97
2019-03-01T23:01:25.795Z,126.40
2019-03-01T23:04:30.774Z,115.17
2019-03-01T23:07:35.039Z,103.87
2019-03-01T23:10:39.523Z,103.60
2019-03-01T23:13:44.655Z,98.43
2019-03-01T23:16:50.633Z,98.17
2019-03-01T23:19:55.067Z,91.50
2019-03-01T23:22:59.404Z,84.77
2019-03-01T23:26:03.783Z,86.63
2019-03-01T23:29:08.122Z,87.23
2019-03-01T23:32:15.446Z,84.17
2019-03-01T23:35:19.019Z,79.10
2019-03-01T23:38:23.357Z,83.53
2019-03-01T23:41:27.674Z,76.83
2019-03-01T23:44:32.814Z,71.03
2019-03-01T23:47:38.398Z,70.30
2019-03-01T23:50:43.520Z,75.43
2019-03-01T23:53:47.831Z,77.33
2019-03-01T23:56:52.111Z,68.57
2019-03-01T23:59:58.698Z,76.97
